Time;durP1;ratioP1;P1;durP2;ratioP2;P2;SDS_P1;SDS_P2;PMS_P1;PMS_P2;Temp;Humidity;BMP_temperature;BMP_pressure;BME280_temperature;BME280_humidity;BME280_pressure;Samples;Min_cycle;Max_cycle;Signal;HPM_P1;HPM_P2
2022/09/22 00:02:11;;;;;;;3.65;2.00;;;13.80;99.90;;;;;;1898868;75;21047;-80
2022/09/22 00:07:41;;;;;;;3.10;1.37;;;13.60;99.90;;;;;;1922749;72;22250;-79
2022/09/22 00:13:10;;;;;;;3.92;1.62;;;13.60;99.90;;;;;;1940141;72;22209;-79
2022/09/22 00:16:03;;;;;;;2.30;1.47;;;13.60;99.90;;;;;;1898417;75;21114;-79
2022/09/22 00:18:55;;;;;;;3.65;1.98;;;13.60;99.90;;;;;;1896102;73;21046;-79
2022/09/22 00:21:47;;;;;;;4.50;1.85;;;13.50;99.90;;;;;;1889775;73;21168;-81
2022/09/22 00:24:41;;;;;;;3.92;1.90;;;13.50;99.90;;;;;;1896637;75;21157;-81
2022/09/22 00:27:32;;;;;;;3.52;1.77;;;13.50;99.90;;;;;;1895060;75;21102;-81
2022/09/22 00:30:24;;;;;;;3.65;1.92;;;13.50;99.90;;;;;;1902275;74;21207;-79
2022/09/22 00:33:15;;;;;;;3.42;1.70;;;13.60;99.90;;;;;;1914372;75;21175;-80
2022/09/22 00:36:07;;;;;;;3.83;1.60;;;13.60;99.90;;;;;;1895854;75;21555;-80
2022/09/22 00:38:59;;;;;;;3.02;1.52;;;13.60;99.90;;;;;;1915384;75;21129;-80
2022/09/22 00:44:39;;;;;;;5.35;1.40;;;13.60;99.90;;;;;;1942822;72;22142;-79
2022/09/22 00:47:39;;;;;;;2.62;1.37;;;13.60;99.90;;;;;;1924063;74;21514;-79
2022/09/22 00:50:32;;;;;;;3.33;1.70;;;13.60;99.90;;;;;;1925898;74;21101;-79
2022/09/22 00:53:25;;;;;;;2.87;1.37;;;13.60;99.90;;;;;;1919849;74;21700;-81
2022/09/22 00:59:02;;;;;;;6.30;1.47;;;13.50;99.90;;;;;;1949520;72;22268;-79
2022/09/22 01:04:32;;;;;;;2.20;1.37;;;13.40;99.90;;;;;;1969581;72;22287;-79
2022/09/22 01:07:26;;;;;;;2.70;1.57;;;13.50;99.90;;;;;;1916586;75;21051;-81
2022/09/22 01:13:01;;;;;;;2.10;1.27;;;13.50;99.90;;;;;;1934865;72;22688;-79
2022/09/22 01:15:59;;;;;;;2.75;1.60;;;13.50;99.90;;;;;;1902434;75;21047;-79
2022/09/22 01:18:58;;;;;;;3.12;1.98;;;13.50;99.90;;;;;;1911577;75;21115;-81
2022/09/22 01:21:52;;;;;;;3.22;1.85;;;13.50;99.90;;;;;;1898155;75;21088;-80
2022/09/22 01:27:42;;;;;;;3.02;1.65;;;13.40;99.90;;;;;;1930817;72;22216;-79
2022/09/22 01:30:38;;;;;;;2.80;1.52;;;13.40;99.90;;;;;;1899387;75;21063;-81
2022/09/22 01:33:35;;;;;;;3.33;1.70;;;13.40;99.90;;;;;;1888509;75;21192;-81
2022/09/22 01:36:30;;;;;;;4.92;1.72;;;13.40;99.90;;;;;;1897268;75;21055;-80
2022/09/22 01:39:24;;;;;;;3.02;1.55;;;13.40;99.90;;;;;;1882639;75;21574;-80
2022/09/22 01:42:19;;;;;;;2.87;1.57;;;13.30;99.90;;;;;;1877280;75;21091;-81
2022/09/22 01:47:54;;;;;;;4.35;1.70;;;13.30;99.90;;;;;;1940292;72;22235;-79
2022/09/22 01:50:49;;;;;;;3.40;1.72;;;13.30;99.90;;;;;;1934231;73;21095;-79
2022/09/22 01:53:43;;;;;;;2.75;1.65;;;13.20;99.90;;;;;;1906143;74;21146;-79
2022/09/22 01:56:37;;;;;;;2.70;1.50;;;13.20;99.90;;;;;;1931051;73;21051;-81
2022/09/22 01:59:30;;;;;;;2.70;1.50;;;13.20;99.90;;;;;;1915993;73;21720;-81
2022/09/22 02:02:24;;;;;;;2.17;1.47;;;13.20;99.90;;;;;;1904412;74;21086;-80
2022/09/22 02:05:19;;;;;;;2.98;1.40;;;13.20;99.90;;;;;;1905281;74;21084;-80
2022/09/22 02:08:15;;;;;;;5.35;1.70;;;13.10;99.90;;;;;;1911883;73;21217;-80
2022/09/22 02:11:11;;;;;;;3.02;1.50;;;13.20;99.90;;;;;;1935759;73;21152;-80
2022/09/22 02:14:03;;;;;;;2.05;1.47;;;13.20;99.90;;;;;;1928082;74;21149;-80
2022/09/22 02:16:56;;;;;;;4.20;2.10;;;13.10;99.90;;;;;;1918576;74;21139;-79
2022/09/22 02:19:47;;;;;;;3.08;1.45;;;13.10;99.90;;;;;;1920202;74;21137;-81
2022/09/22 02:22:39;;;;;;;4.22;1.50;;;13.10;99.90;;;;;;1926086;74;21118;-80
2022/09/22 02:28:12;;;;;;;4.30;1.40;;;13.00;99.90;;;;;;1938287;72;22211;-79
2022/09/22 02:33:42;;;;;;;3.55;1.70;;;12.90;99.90;;;;;;1950158;72;22181;-79
2022/09/22 02:36:48;;;;;;;2.75;1.50;;;12.90;99.90;;;;;;1926643;73;21107;-80
2022/09/22 02:39:43;;;;;;;2.45;1.30;;;13.00;99.90;;;;;;1917781;74;21108;-80
2022/09/22 02:42:37;;;;;;;4.67;1.55;;;13.00;99.90;;;;;;1931003;73;21179;-79
2022/09/22 02:48:09;;;;;;;2.52;1.62;;;12.90;99.90;;;;;;1943583;72;22236;-79
2022/09/22 02:51:01;;;;;;;3.22;1.42;;;12.90;99.90;;;;;;1898952;75;21451;-80
2022/09/22 02:53:53;;;;;;;3.65;1.80;;;12.90;99.90;;;;;;1884783;75;21055;-79
2022/09/22 02:56:44;;;;;;;3.92;1.60;;;12.90;99.90;;;;;;1900252;75;21647;-80
2022/09/22 02:59:36;;;;;;;2.35;1.50;;;12.90;99.90;;;;;;1884801;75;21059;-81
2022/09/22 03:02:27;;;;;;;3.30;1.72;;;12.90;99.90;;;;;;1888373;75;21556;-80
2022/09/22 03:07:58;;;;;;;3.00;1.77;;;12.90;99.90;;;;;;1948969;72;22224;-79
2022/09/22 03:10:49;;;;;;;2.40;1.47;;;12.90;99.90;;;;;;1904596;75;21499;-81
2022/09/22 03:13:40;;;;;;;4.03;2.05;;;12.80;99.90;;;;;;1888957;75;21132;-79
2022/09/22 03:16:32;;;;;;;3.50;1.80;;;12.80;99.90;;;;;;1908043;75;21140;-80
2022/09/22 03:19:23;;;;;;;2.50;1.60;;;12.80;99.90;;;;;;1906676;75;21136;-80
2022/09/22 03:22:15;;;;;;;3.70;1.72;;;12.80;99.90;;;;;;1909417;75;21502;-80
2022/09/22 03:27:47;;;;;;;2.17;1.50;;;12.70;99.90;;;;;;1923978;72;22549;-79
2022/09/22 03:30:39;;;;;;;2.55;1.60;;;12.60;99.90;;;;;;1904644;74;21530;-81
2022/09/22 03:33:30;;;;;;;4.80;1.70;;;12.60;99.90;;;;;;1905203;74;21080;-81
2022/09/22 03:36:22;;;;;;;2.83;1.65;;;12.60;99.90;;;;;;1918837;74;21113;-81
2022/09/22 03:39:14;;;;;;;3.05;1.70;;;12.70;99.90;;;;;;1927393;74;21447;-80
2022/09/22 03:42:06;;;;;;;2.50;1.77;;;12.60;99.90;;;;;;1925185;74;21392;-80
2022/09/22 03:44:57;;;;;;;4.35;1.65;;;12.60;99.90;;;;;;1887064;74;21154;-79
2022/09/22 03:50:28;;;;;;;3.20;2.08;;;12.70;99.90;;;;;;1936024;72;22108;-79
2022/09/22 03:53:20;;;;;;;3.52;1.90;;;12.60;99.90;;;;;;1906716;75;21099;-79
2022/09/22 03:56:14;;;;;;;3.98;1.90;;;12.60;99.90;;;;;;1892636;75;21047;-79
2022/09/22 03:59:06;;;;;;;2.95;1.90;;;12.60;99.90;;;;;;1884943;75;21203;-80
2022/09/22 04:01:59;;;;;;;3.50;1.72;;;12.50;99.90;;;;;;1902924;75;21129;-80
2022/09/22 04:07:30;;;;;;;3.25;2.27;;;12.40;99.90;;;;;;1950600;72;22178;-79
2022/09/22 04:10:22;;;;;;;5.00;2.27;;;12.40;99.90;;;;;;1884021;75;21122;-80
2022/09/22 04:13:14;;;;;;;5.17;2.05;;;12.50;99.90;;;;;;1901209;75;21118;-81
2022/09/22 04:16:06;;;;;;;2.87;1.80;;;12.40;99.90;;;;;;1900099;75;21584;-81
2022/09/22 04:18:58;;;;;;;3.27;1.70;;;12.30;99.90;;;;;;1874475;75;21624;-80
2022/09/22 04:21:49;;;;;;;4.30;1.62;;;12.30;99.90;;;;;;1876510;75;21052;-80
2022/09/22 04:24:42;;;;;;;3.50;2.00;;;12.30;99.90;;;;;;1895389;75;21158;-80
2022/09/22 04:27:33;;;;;;;4.42;2.10;;;12.20;99.90;;;;;;1892370;75;21064;-80
2022/09/22 04:30:25;;;;;;;3.22;1.85;;;12.20;99.90;;;;;;1892372;75;21224;-80
2022/09/22 04:33:17;;;;;;;3.77;2.42;;;12.10;99.90;;;;;;1899732;75;21080;-80
2022/09/22 04:36:09;;;;;;;3.90;1.82;;;12.10;99.90;;;;;;1885447;75;21109;-80
2022/09/22 04:39:01;;;;;;;3.75;2.30;;;12.00;99.90;;;;;;1896227;75;21060;-79
2022/09/22 04:41:53;;;;;;;5.20;2.12;;;12.00;99.90;;;;;;1879076;75;21059;-80
2022/09/22 04:44:45;;;;;;;4.10;2.20;;;12.00;99.90;;;;;;1876364;75;21120;-80
2022/09/22 04:47:36;;;;;;;4.80;2.27;;;12.00;99.90;;;;;;1877522;75;21063;-80
2022/09/22 04:50:28;;;;;;;3.72;1.87;;;12.00;99.90;;;;;;1887823;75;21095;-79
2022/09/22 04:53:19;;;;;;;5.25;2.10;;;12.00;99.90;;;;;;1891379;75;21056;-80
2022/09/22 04:56:10;;;;;;;3.62;2.08;;;12.00;99.90;;;;;;1883014;75;21122;-81
2022/09/22 04:59:02;;;;;;;5.55;1.90;;;12.00;99.90;;;;;;1884804;75;21218;-80
2022/09/22 05:01:54;;;;;;;3.42;2.12;;;11.90;99.90;;;;;;1895160;75;21118;-80
2022/09/22 05:04:45;;;;;;;5.00;1.90;;;11.90;99.90;;;;;;1891914;75;21117;-80
2022/09/22 05:07:38;;;;;;;4.17;2.35;;;11.90;99.90;;;;;;1898417;75;21135;-79
2022/09/22 05:10:31;;;;;;;3.37;2.05;;;11.90;99.90;;;;;;1894624;75;21139;-80
2022/09/22 05:13:22;;;;;;;4.42;1.95;;;12.00;99.90;;;;;;1897007;75;21076;-80
2022/09/22 05:16:14;;;;;;;2.98;2.42;;;12.00;99.90;;;;;;1890662;75;21083;-81
2022/09/22 05:19:05;;;;;;;3.98;2.17;;;11.90;99.90;;;;;;1884553;75;21109;-80
2022/09/22 05:21:57;;;;;;;5.90;2.50;;;11.90;99.90;;;;;;1887794;75;21138;-79
2022/09/22 05:24:51;;;;;;;2.55;1.77;;;11.90;99.90;;;;;;1890289;75;21060;-80
2022/09/22 05:27:46;;;;;;;2.90;2.00;;;11.80;99.90;;;;;;1905673;74;21091;-80
2022/09/22 05:30:37;;;;;;;4.15;2.30;;;11.80;99.90;;;;;;1904228;74;21486;-80
2022/09/22 05:33:29;;;;;;;5.90;2.72;;;11.70;99.90;;;;;;1900997;75;21051;-79
2022/09/22 05:36:20;;;;;;;5.28;2.40;;;11.80;99.90;;;;;;1892494;75;21064;-80
2022/09/22 05:39:12;;;;;;;6.03;2.45;;;11.80;99.90;;;;;;1905171;75;21087;-81
2022/09/22 05:42:04;;;;;;;3.25;2.08;;;11.80;99.90;;;;;;1905646;75;21079;-81
2022/09/22 05:44:57;;;;;;;2.87;2.30;;;11.80;99.90;;;;;;1878062;75;21678;-81
2022/09/22 05:50:27;;;;;;;4.05;2.58;;;11.90;99.90;;;;;;1936628;72;22854;-82
2022/09/22 05:53:18;;;;;;;6.33;2.37;;;12.00;99.90;;;;;;1904849;75;21050;-82
2022/09/22 05:56:09;;;;;;;3.55;2.20;;;12.10;99.90;;;;;;1886021;75;21054;-80
2022/09/22 05:59:01;;;;;;;3.77;2.30;;;12.00;99.90;;;;;;1894920;75;21106;-80
2022/09/22 06:01:52;;;;;;;4.28;2.37;;;12.00;99.90;;;;;;1894011;75;21110;-80
2022/09/22 06:04:45;;;;;;;5.72;2.60;;;11.90;99.90;;;;;;1907279;74;21118;-80
2022/09/22 06:07:38;;;;;;;6.80;3.10;;;11.90;99.90;;;;;;1903653;75;21247;-80
2022/09/22 06:13:21;;;;;;;7.78;2.50;;;11.90;99.90;;;;;;1954752;72;22357;-82
2022/09/22 06:16:12;;;;;;;10.85;2.70;;;11.90;99.90;;;;;;1915848;73;21055;-81
2022/09/22 06:19:04;;;;;;;8.88;2.70;;;11.90;99.90;;;;;;1938129;74;21052;-80
2022/09/22 06:24:36;;;;;;;11.05;2.80;;;12.00;99.90;;;;;;1953670;72;22111;-81
2022/09/22 06:27:27;;;;;;;6.97;2.62;;;12.00;99.90;;;;;;1896667;75;21110;-81
2022/09/22 06:32:58;;;;;;;5.15;2.80;;;12.00;99.90;;;;;;1946082;72;22176;-82
2022/09/22 06:35:49;;;;;;;6.15;2.87;;;12.00;99.90;;;;;;1923560;73;21097;-82
2022/09/22 06:38:41;;;;;;;5.67;2.70;;;12.00;99.90;;;;;;1926343;73;21072;-81
2022/09/22 06:41:33;;;;;;;4.95;2.83;;;12.00;99.90;;;;;;1932465;73;21553;-81
2022/09/22 06:44:26;;;;;;;10.23;3.22;;;12.00;99.90;;;;;;1917238;73;21689;-80
2022/09/22 06:47:17;;;;;;;9.98;3.98;;;12.00;99.90;;;;;;1935499;73;21050;-82
2022/09/22 06:52:47;;;;;;;17.75;3.90;;;12.00;99.90;;;;;;1949101;72;22189;-83
2022/09/22 06:55:40;;;;;;;43.55;9.98;;;12.00;99.90;;;;;;1931001;73;21047;-78
2022/09/22 06:58:31;;;;;;;34.95;5.85;;;12.00;99.90;;;;;;1919556;73;21153;-78
2022/09/22 07:01:27;;;;;;;7.22;3.08;;;12.10;99.90;;;;;;1920201;74;21075;-78
2022/09/22 07:04:21;;;;;;;7.30;2.77;;;12.10;99.90;;;;;;1923648;73;21106;-78
2022/09/22 07:07:12;;;;;;;7.20;3.35;;;12.20;99.90;;;;;;1921802;74;21169;-80
2022/09/22 07:10:04;;;;;;;7.85;3.60;;;12.30;99.90;;;;;;1930420;73;21109;-80
2022/09/22 07:12:59;;;;;;;6.45;2.52;;;12.30;99.90;;;;;;1917280;74;21106;-80
2022/09/22 07:15:50;;;;;;;6.55;3.00;;;12.40;99.90;;;;;;1918976;73;21166;-78
2022/09/22 07:18:44;;;;;;;6.15;2.75;;;12.50;99.90;;;;;;1917365;73;21144;-79
2022/09/22 07:21:36;;;;;;;4.00;2.37;;;12.60;99.90;;;;;;1922106;73;21193;-79
2022/09/22 07:24:28;;;;;;;3.70;2.75;;;12.60;99.90;;;;;;1917043;75;21163;-79
2022/09/22 07:27:25;;;;;;;8.10;2.90;;;12.70;99.90;;;;;;1940518;73;21141;-80
2022/09/22 07:30:14;;;;;;;7.97;2.60;;;12.80;99.90;;;;;;1925086;73;21167;-78
2022/09/22 07:33:06;;;;;;;3.83;2.42;;;12.90;99.90;;;;;;1917032;75;21084;-78
2022/09/22 07:36:07;;;;;;;3.75;2.95;;;13.00;99.90;;;;;;1936188;73;21062;-80
2022/09/22 07:39:05;;;;;;;5.75;2.62;;;13.10;99.90;;;;;;1917524;73;21206;-79
2022/09/22 07:41:57;;;;;;;3.83;2.85;;;13.20;99.90;;;;;;1933207;73;21458;-78
2022/09/22 07:51:09;;;;;;;6.08;3.42;;;13.30;99.90;;;;;;1918475;73;21063;-78
2022/09/22 07:54:06;;;;;;;5.30;3.40;;;13.50;99.90;;;;;;1917413;73;21165;-78
2022/09/22 07:56:57;;;;;;;5.53;2.58;;;13.60;99.90;;;;;;1917467;75;21663;-78
2022/09/22 07:59:49;;;;;;;6.47;2.60;;;13.60;99.90;;;;;;1927301;73;21716;-81
2022/09/22 08:02:40;;;;;;;5.70;2.85;;;13.70;99.90;;;;;;1925909;73;21086;-81
2022/09/22 08:08:11;;;;;;;3.92;2.40;;;13.90;99.90;;;;;;1948622;72;22187;-79
2022/09/22 08:11:07;;;;;;;3.58;2.05;;;14.00;99.90;;;;;;1891334;74;21188;-79
2022/09/22 08:14:00;;;;;;;3.92;2.12;;;14.10;99.90;;;;;;1916617;75;21244;-79
2022/09/22 08:16:52;;;;;;;3.77;1.60;;;14.20;99.90;;;;;;1893404;75;21162;-79
2022/09/22 08:19:44;;;;;;;3.47;2.30;;;14.20;99.90;;;;;;1884333;75;21192;-79
2022/09/22 08:22:36;;;;;;;2.83;1.90;;;14.30;99.90;;;;;;1889377;75;21084;-79
2022/09/22 08:25:28;;;;;;;4.30;1.98;;;14.40;99.90;;;;;;1897254;75;21063;-79
2022/09/22 08:28:19;;;;;;;5.80;2.10;;;14.40;99.90;;;;;;1908278;75;21496;-79
2022/09/22 08:33:56;;;;;;;4.85;2.67;;;14.60;99.90;;;;;;1914631;72;28033;-80
2022/09/22 08:36:47;;;;;;;4.00;2.35;;;14.80;99.90;;;;;;1902738;75;21044;-80
2022/09/22 08:39:39;;;;;;;8.13;3.33;;;14.90;99.90;;;;;;1897117;75;21046;-80
2022/09/22 08:42:31;;;;;;;3.02;2.10;;;14.90;99.90;;;;;;1907388;75;21117;-79
2022/09/22 08:45:29;;;;;;;2.37;2.00;;;15.00;99.90;;;;;;1904967;75;21106;-78
2022/09/22 08:51:54;;;;;;;4.90;2.00;;;15.10;99.90;;;;;;1898812;75;21055;-78
2022/09/22 08:54:45;;;;;;;4.42;3.17;;;15.20;99.90;;;;;;1893963;75;21128;-78
2022/09/22 08:57:58;;;;;;;2.98;2.20;;;15.20;99.90;;;;;;1899990;75;21180;-78
2022/09/22 09:00:54;;;;;;;2.77;1.95;;;15.30;99.90;;;;;;1899748;75;21098;-78
2022/09/22 09:03:54;;;;;;;4.72;2.37;;;15.40;99.90;;;;;;1897245;75;21043;-78
2022/09/22 09:06:50;;;;;;;3.20;1.92;;;15.50;99.90;;;;;;1886422;75;21177;-78
2022/09/22 09:09:49;;;;;;;12.85;2.55;;;15.50;99.90;;;;;;1897736;75;21114;-80
2022/09/22 09:12:54;;;;;;;4.95;2.37;;;15.60;99.90;;;;;;1884445;75;21133;-80
2022/09/22 09:15:54;;;;;;;6.28;2.20;;;15.70;99.90;;;;;;1895320;75;21059;-79
2022/09/22 09:18:48;;;;;;;3.27;2.20;;;15.70;99.90;;;;;;1886233;75;21090;-80
2022/09/22 09:21:43;;;;;;;3.90;2.08;;;15.80;99.90;;;;;;1901293;75;21158;-79
2022/09/22 09:24:36;;;;;;;3.98;2.62;;;15.90;99.90;;;;;;1902793;75;21179;-78
2022/09/22 09:27:31;;;;;;;3.65;2.08;;;16.00;99.90;;;;;;1903260;75;21765;-78
2022/09/22 09:30:23;;;;;;;4.42;2.00;;;16.00;99.90;;;;;;1909558;75;21107;-79
2022/09/22 09:36:02;;;;;;;4.28;1.85;;;16.10;99.90;;;;;;1955030;72;22099;-82
2022/09/22 09:38:56;;;;;;;4.17;2.42;;;16.20;99.90;;;;;;1914703;75;21662;-80
2022/09/22 09:41:49;;;;;;;3.05;1.98;;;16.30;99.90;;;;;;1917229;75;21035;-79
2022/09/22 09:44:42;;;;;;;4.75;2.25;;;16.40;99.90;;;;;;1885701;75;21091;-79
2022/09/22 09:47:50;;;;;;;3.75;2.30;;;16.40;99.90;;;;;;1883275;75;21103;-79
2022/09/22 09:50:42;;;;;;;7.05;2.00;;;16.50;99.90;;;;;;1895283;75;21135;-78
2022/09/22 09:53:36;;;;;;;4.97;2.47;;;16.60;99.90;;;;;;1888371;75;21593;-78
2022/09/22 09:56:30;;;;;;;4.58;2.10;;;16.70;99.90;;;;;;1908101;75;21102;-78
2022/09/22 10:02:38;;;;;;;5.55;2.08;;;16.80;99.90;;;;;;1834665;74;21055;-80
2022/09/22 10:08:22;;;;;;;2.72;1.80;;;16.90;99.90;;;;;;1944843;72;22173;-81
2022/09/22 10:13:55;;;;;;;5.30;1.92;;;17.10;99.90;;;;;;1937176;72;22279;-82
2022/09/22 10:16:53;;;;;;;6.00;2.08;;;17.20;99.90;;;;;;1909472;74;21333;-78
2022/09/22 10:19:45;;;;;;;3.55;1.80;;;17.30;99.90;;;;;;1910677;75;21577;-78
2022/09/22 10:22:37;;;;;;;4.37;1.90;;;17.30;99.90;;;;;;1918269;74;21074;-79
2022/09/22 10:25:31;;;;;;;4.10;1.82;;;17.40;99.90;;;;;;1915594;74;21180;-78
2022/09/22 10:28:24;;;;;;;3.12;1.72;;;17.40;99.90;;;;;;1923011;74;21124;-78
2022/09/22 10:31:23;;;;;;;4.00;2.10;;;17.30;99.90;;;;;;1898459;74;21108;-79
2022/09/22 10:34:30;;;;;;;3.52;1.80;;;17.40;99.90;;;;;;1918951;74;21031;-79
2022/09/22 10:40:12;;;;;;;3.50;2.10;;;17.40;99.90;;;;;;1974316;72;22149;-77
2022/09/22 10:43:06;;;;;;;6.40;1.95;;;17.60;99.90;;;;;;1931701;73;21561;-77
2022/09/22 10:46:02;;;;;;;3.80;1.77;;;17.60;99.90;;;;;;1903795;74;21098;-79
2022/09/22 10:48:57;;;;;;;4.75;1.87;;;17.70;99.90;;;;;;1924117;74;21148;-78
2022/09/22 10:51:56;;;;;;;3.37;1.85;;;17.70;99.90;;;;;;1917078;74;21160;-78
2022/09/22 10:55:14;;;;;;;3.87;1.90;;;17.80;99.90;;;;;;1905032;75;21169;-78
2022/09/22 10:58:41;;;;;;;5.90;2.40;;;17.90;99.90;;;;;;1908365;74;21147;-78
2022/09/22 11:01:46;;;;;;;4.53;1.80;;;18.00;99.90;;;;;;1832059;78;21816;-78
2022/09/22 11:04:53;;;;;;;6.50;2.00;;;18.10;99.90;;;;;;1904622;75;21160;-78
2022/09/22 11:14:30;;;;;;;4.10;1.82;;;18.30;99.90;;;;;;1904572;74;21098;-78
2022/09/22 11:17:33;;;;;;;3.55;1.70;;;18.40;99.90;;;;;;1893858;75;21139;-78
2022/09/22 11:23:36;;;;;;;3.08;1.82;;;18.50;99.90;;;;;;1931571;72;22292;-77
2022/09/22 11:26:42;;;;;;;4.12;1.82;;;18.50;99.90;;;;;;1885457;75;21078;-77
2022/09/22 11:30:19;;;;;;;4.97;2.02;;;18.60;99.90;;;;;;1884202;75;21591;-77
2022/09/22 11:33:20;;;;;;;3.60;1.57;;;18.70;99.90;;;;;;1884379;75;21098;-80
2022/09/22 11:39:11;;;;;;;3.72;1.90;;;18.90;99.90;;;;;;1926674;72;22275;-77
2022/09/22 11:44:52;;;;;;;5.10;1.80;;;19.00;99.90;;;;;;1939313;72;22213;-78
2022/09/22 11:50:48;;;;;;;4.62;2.42;;;19.10;99.90;;;;;;1919110;72;38310;-77
2022/09/22 11:56:44;;;;;;;4.05;1.30;;;19.40;99.90;;;;;;1942748;72;22141;-77
2022/09/22 11:59:40;;;;;;;4.83;1.87;;;19.40;99.90;;;;;;1935453;73;21158;-79
2022/09/22 12:02:35;;;;;;;3.98;1.75;;;19.50;99.90;;;;;;1940843;73;21093;-77
2022/09/22 12:08:10;;;;;;;3.27;1.35;;;19.90;99.90;;;;;;1926395;72;22193;-77
2022/09/22 12:11:04;;;;;;;4.00;1.27;;;20.10;99.90;;;;;;1884766;75;21062;-77
2022/09/22 12:13:59;;;;;;;2.83;1.30;;;20.30;99.90;;;;;;1902922;75;21173;-77
2022/09/22 12:16:54;;;;;;;5.50;1.60;;;20.30;99.90;;;;;;1900420;75;21153;-77
2022/09/22 12:19:52;;;;;;;3.62;0.82;;;20.40;99.90;;;;;;1890730;75;21106;-78
2022/09/22 12:22:52;;;;;;;2.30;1.02;;;20.50;99.90;;;;;;1897709;75;21573;-79
2022/09/22 12:25:50;;;;;;;5.40;1.17;;;20.60;99.90;;;;;;1906043;75;21067;-77
2022/09/22 12:28:44;;;;;;;3.30;1.00;;;20.70;99.90;;;;;;1901912;75;21498;-78
2022/09/22 12:31:38;;;;;;;2.45;0.80;;;20.80;99.90;;;;;;1909141;75;21084;-78
2022/09/22 12:34:33;;;;;;;2.15;1.00;;;20.80;99.90;;;;;;1896037;75;21067;-78
2022/09/22 12:37:29;;;;;;;4.10;1.45;;;20.90;99.90;;;;;;1893638;74;21109;-78
2022/09/22 12:40:26;;;;;;;2.22;1.10;;;21.00;99.90;;;;;;1887038;75;21172;-78
2022/09/22 12:43:21;;;;;;;3.58;0.90;;;20.90;99.90;;;;;;1917338;75;21146;-80
2022/09/22 12:48:53;;;;;;;2.37;1.05;;;21.20;99.90;;;;;;1949642;72;22775;-80
2022/09/22 12:51:45;;;;;;;3.65;1.02;;;21.20;99.90;;;;;;1901667;75;21046;-80
2022/09/22 12:54:40;;;;;;;1.82;1.00;;;21.20;99.90;;;;;;1903967;74;21119;-80
2022/09/22 12:57:33;;;;;;;4.92;1.10;;;21.20;99.90;;;;;;1822246;78;21133;-80
2022/09/22 13:00:28;;;;;;;3.65;1.00;;;21.30;99.90;;;;;;1888493;75;21054;-80
2022/09/22 13:03:48;;;;;;;1.20;0.90;;;21.40;99.90;;;;;;1908404;75;21050;-80
2022/09/22 13:07:30;;;;;;;2.15;0.90;;;21.40;99.90;;;;;;1908372;75;21089;-80
2022/09/22 13:10:51;;;;;;;2.08;0.90;;;21.40;99.90;;;;;;1886762;75;21130;-79
2022/09/22 13:13:44;;;;;;;2.40;1.27;;;21.40;99.90;;;;;;1889677;75;21101;-79
2022/09/22 13:16:37;;;;;;;3.35;0.98;;;21.50;99.90;;;;;;1888240;75;21510;-80
2022/09/22 13:19:29;;;;;;;3.33;0.95;;;21.50;99.90;;;;;;1908343;75;21112;-80
2022/09/22 13:22:21;;;;;;;4.33;1.10;;;21.50;99.90;;;;;;1903710;75;21054;-80
2022/09/22 13:25:20;;;;;;;2.77;1.20;;;21.60;99.90;;;;;;1909354;75;21143;-80
2022/09/22 13:28:15;;;;;;;3.47;1.00;;;21.70;99.90;;;;;;1888137;75;21592;-80
2022/09/22 13:31:13;;;;;;;1.95;1.00;;;21.70;99.90;;;;;;1886965;75;21138;-81
2022/09/22 13:34:17;;;;;;;;;;;21.80;99.90;;;;;;1908971;75;21055;-80
2022/09/22 13:37:12;;;;;;;2.35;1.00;;;21.90;99.90;;;;;;1906491;75;20163;-81
2022/09/22 13:40:04;;;;;;;1.30;0.90;;;21.90;99.90;;;;;;1897387;75;21158;-81
2022/09/22 13:42:59;;;;;;;2.33;0.90;;;21.90;99.90;;;;;;1905071;75;21121;-80
2022/09/22 13:46:04;;;;;;;2.65;1.10;;;21.80;99.90;;;;;;1873235;75;21063;-80
2022/09/22 13:48:58;;;;;;;3.47;1.10;;;21.90;99.90;;;;;;1824302;78;21145;-80
2022/09/22 13:51:54;;;;;;;2.05;0.98;;;22.00;99.90;;;;;;1907353;75;21098;-80
2022/09/22 13:54:48;;;;;;;3.40;0.88;;;22.00;99.90;;;;;;1907217;75;21122;-80
2022/09/22 13:57:51;;;;;;;2.62;1.22;;;22.00;99.90;;;;;;1907915;75;21058;-80
2022/09/22 14:00:45;;;;;;;2.05;0.85;;;22.10;99.90;;;;;;1907499;75;21223;-80
2022/09/22 14:03:38;;;;;;;1.85;0.90;;;22.10;99.90;;;;;;1915397;74;21211;-80
2022/09/22 14:06:32;;;;;;;3.35;1.07;;;22.10;99.90;;;;;;1913923;74;21165;-80
2022/09/22 14:09:24;;;;;;;2.55;0.98;;;22.20;99.90;;;;;;1913530;74;21646;-78
2022/09/22 14:12:19;;;;;;;3.08;1.20;;;22.90;99.90;;;;;;1916641;74;21563;-78
2022/09/22 14:15:42;;;;;;;2.77;1.10;;;23.70;99.90;;;;;;1890018;75;21113;-77
2022/09/22 14:18:36;;;;;;;2.05;0.98;;;24.30;99.90;;;;;;1919708;74;21055;-78
2022/09/22 14:21:27;;;;;;;1.40;0.90;;;24.60;99.90;;;;;;1924926;74;21058;-77
2022/09/22 14:24:19;;;;;;;1.67;0.90;;;24.70;99.90;;;;;;1909305;74;21112;-76
2022/09/22 14:27:19;;;;;;;2.52;1.12;;;24.80;99.90;;;;;;1912057;74;21051;-77
2022/09/22 14:30:18;;;;;;;1.55;1.02;;;24.80;99.90;;;;;;1923324;74;21057;-78
2022/09/22 14:33:16;;;;;;;3.02;1.00;;;25.10;99.90;;;;;;1919998;74;21118;-77
2022/09/22 14:36:13;;;;;;;1.60;0.88;;;25.30;99.90;;;;;;1888692;75;21490;-77
2022/09/22 14:39:05;;;;;;;1.00;0.68;;;25.30;99.90;;;;;;1868534;76;21152;-77
2022/09/22 14:42:00;;;;;;;2.05;0.90;;;25.40;99.90;;;;;;1926057;74;21514;-77
2022/09/22 14:44:56;;;;;;;2.10;0.98;;;25.60;99.90;;;;;;1902481;75;21203;-76
2022/09/22 14:47:48;;;;;;;1.80;0.90;;;25.70;99.20;;;;;;1899277;74;21053;-77
2022/09/22 14:50:44;;;;;;;2.50;1.20;;;25.40;98.90;;;;;;1894075;74;21073;-77
2022/09/22 14:53:40;;;;;;;2.10;0.78;;;25.70;98.60;;;;;;1893273;74;21042;-79
2022/09/22 14:56:33;;;;;;;3.17;1.00;;;25.90;97.50;;;;;;1869773;76;21074;-78
2022/09/22 15:02:39;;;;;;;3.52;1.10;;;26.10;96.50;;;;;;1895316;75;21054;-78
2022/09/22 15:05:32;;;;;;;2.72;0.80;;;26.40;95.90;;;;;;1906087;75;21055;-78
2022/09/22 15:08:27;;;;;;;1.52;0.72;;;26.60;94.30;;;;;;1931906;73;21149;-77
2022/09/22 15:11:18;;;;;;;2.40;1.10;;;26.50;94.20;;;;;;1911782;73;21516;-78
2022/09/22 15:14:28;;;;;;;2.25;0.85;;;26.60;93.60;;;;;;1926556;73;21128;-78
2022/09/22 15:20:52;;;;;;;2.72;1.15;;;26.30;92.40;;;;;;1912198;73;21474;-77
2022/09/22 15:23:46;;;;;;;3.10;0.80;;;26.60;92.40;;;;;;1928129;73;21571;-78
2022/09/22 15:26:43;;;;;;;2.30;1.10;;;26.90;91.00;;;;;;1917281;73;21170;-78
2022/09/22 15:29:35;;;;;;;2.40;1.00;;;26.90;91.10;;;;;;1940063;73;21534;-78
2022/09/22 15:32:28;;;;;;;1.72;0.70;;;27.00;90.80;;;;;;1920099;73;21046;-78
2022/09/22 15:35:26;;;;;;;2.30;0.75;;;26.70;89.70;;;;;;1926872;73;21128;-78
2022/09/22 15:38:22;;;;;;;1.67;0.80;;;26.60;90.20;;;;;;1915534;73;21126;-78
2022/09/22 15:41:15;;;;;;;4.05;1.00;;;27.20;89.30;;;;;;1893092;75;21105;-79
2022/09/22 15:44:09;;;;;;;1.80;0.82;;;27.10;87.80;;;;;;1922117;73;21107;-78
2022/09/22 15:47:01;;;;;;;2.10;1.10;;;26.80;87.90;;;;;;1925043;73;21505;-77
2022/09/22 15:49:53;;;;;;;2.80;1.00;;;27.10;88.80;;;;;;1880243;75;21142;-77
2022/09/22 15:52:45;;;;;;;2.37;0.90;;;27.00;86.20;;;;;;1866840;76;21149;-78
2022/09/22 15:55:36;;;;;;;2.80;0.82;;;26.90;84.00;;;;;;1857965;75;21070;-78
2022/09/22 15:58:32;;;;;;;3.42;0.90;;;27.40;86.10;;;;;;1906644;74;21066;-78
2022/09/22 16:01:24;;;;;;;3.05;1.00;;;27.60;82.70;;;;;;1915972;74;21535;-81
2022/09/22 16:07:07;;;;;;;2.90;1.02;;;28.20;84.30;;;;;;1961721;72;22163;-81
2022/09/22 16:09:58;;;;;;;2.50;0.98;;;27.80;79.50;;;;;;1917206;75;21122;-81
2022/09/22 16:12:50;;;;;;;2.50;1.22;;;27.20;82.00;;;;;;1921914;73;21091;-81
2022/09/22 16:15:41;;;;;;;2.90;1.22;;;27.00;80.80;;;;;;1951102;73;21138;-81
2022/09/22 16:18:35;;;;;;;3.65;1.00;;;27.20;82.70;;;;;;1934789;73;21056;-81
2022/09/22 16:21:28;;;;;;;3.05;1.20;;;27.10;82.40;;;;;;1917479;75;21498;-81
2022/09/22 16:24:21;;;;;;;2.85;1.10;;;27.20;84.00;;;;;;1939790;73;21063;-81
2022/09/22 16:27:13;;;;;;;4.40;1.00;;;26.60;84.10;;;;;;1917341;75;21169;-81
2022/09/22 16:30:05;;;;;;;1.85;1.05;;;26.40;86.20;;;;;;1917812;75;21083;-81
2022/09/22 16:32:56;;;;;;;3.10;1.15;;;26.00;88.60;;;;;;1917356;75;21221;-81
2022/09/22 16:35:48;;;;;;;2.72;1.40;;;25.50;89.60;;;;;;1917228;75;21138;-81
2022/09/22 16:38:40;;;;;;;2.85;1.30;;;24.80;90.80;;;;;;1923538;73;21478;-81
2022/09/22 16:41:34;;;;;;;2.17;1.02;;;24.20;91.60;;;;;;1917732;75;21071;-81
2022/09/22 16:44:25;;;;;;;3.42;1.45;;;23.70;92.40;;;;;;1917499;75;21056;-81
2022/09/22 16:47:21;;;;;;;2.77;1.20;;;23.20;93.50;;;;;;1917389;75;21175;-81
2022/09/22 16:50:11;;;;;;;4.42;1.00;;;22.90;94.30;;;;;;1940184;73;21176;-81
2022/09/22 16:55:49;;;;;;;3.55;1.07;;;22.10;96.50;;;;;;1958175;72;22221;-81
2022/09/22 16:58:40;;;;;;;2.98;1.42;;;21.90;97.10;;;;;;1907207;75;21195;-80
2022/09/22 17:01:35;;;;;;;4.28;1.00;;;21.70;98.10;;;;;;1911321;75;21636;-80
2022/09/22 17:04:26;;;;;;;3.60;1.20;;;21.50;98.50;;;;;;1894397;75;21054;-78
2022/09/22 17:07:18;;;;;;;3.67;1.60;;;21.40;99.40;;;;;;1884508;76;21055;-78
2022/09/22 17:10:12;;;;;;;4.62;1.22;;;21.20;99.90;;;;;;1897218;75;21110;-77
2022/09/22 17:13:04;;;;;;;4.40;1.32;;;21.00;99.90;;;;;;1895569;75;21102;-78